Wailuku, HI (96793)

9:29 PM HST on September 24, 2016 (GMT -1000)
Wailuku | | Change Station

Elev 427 ft 20.88 °N, 156.51 °W | Updated 7 seconds ago

Partly Cloudy
Partly Cloudy
77.2 °F
Feels Like 79 °F
N
3.6
Wind Variable Wind from NNW
Gusts 4.9 mph

Today
High -- | Low -- °F
--% Chance of Precip.
Yesterday
High -- | Low -- °F
Precip. -- in
Pressure 30.06 in
Visibility 10.0 miles
Clouds Few 3500 ft
Heat Index 79 °F
Dew Point 57 °F
Humidity 49%
Rainfall 0.00 in
Snow Depth Not available.
6:15 AM 6:19 PM
Waning Crescent, 30% visible
METAR PHOG 250654Z 06011KT 10SM FEW035 26/19 A3004 RMK AO2 SLP177 T02560194
Pressure 30.06 in
Visibility 10.0 miles
Clouds Few 3500 ft
Heat Index 79 °F
Dew Point 57 °F
Humidity 49%
Rainfall 0.00 in
Snow Depth Not available.
6:15 AM 6:19 PM
Waning Crescent, 30% visible
METAR PHOG 250654Z 06011KT 10SM FEW035 26/19 A3004 RMK AO2 SLP177 T02560194

10-Day Weather Forecast

Almanac

Astronomy

Sep. 24, 2016 Rise Set
Actual Time
Civil Twilight
Nautical Twilight
Astronomical Twilight
Moon
Length of Visible Light
Length of Day
Tomorrow will be .
, % of the Moon is Illuminated

Today's Extremes

State Highs State Lows

Community

WunderPhotos

Upload Photos

1,941,554 photos uploaded!

WunderBlog® & News

Nearby

Air Quality

  Air Quality AQ Index Pollutant
Not available.

Snow Depth

Station Depth Elevation

Earthquake Activity

City Distance Mag. Time & Date
Minimum magnitude displayed is 2.5.

Coastal Water Temperatures

Place Temperature

Stations

Nearby Weather Stations

Station Location Temp. Windchill Dew Point Humidity Wind Precip. Elev Updated Type
                   

Watches & Warnings

There are currently no watches in effect.